sensor_id;sensor_type;location;lat;lon;timestamp;P1;durP1;ratioP1;P2;durP2;ratioP2
33714;SDS011;20043;50.998;4.754;2023-04-09T00:01:26;25.08;;;20.20;;
33714;SDS011;20043;50.998;4.754;2023-04-09T00:03:52;33.97;;;21.75;;
33714;SDS011;20043;50.998;4.754;2023-04-09T00:06:17;29.13;;;21.38;;
33714;SDS011;20043;50.998;4.754;2023-04-09T00:08:43;26.60;;;20.55;;
33714;SDS011;20043;50.998;4.754;2023-04-09T00:11:09;31.63;;;21.75;;
33714;SDS011;20043;50.998;4.754;2023-04-09T00:13:34;28.00;;;20.55;;
33714;SDS011;20043;50.998;4.754;2023-04-09T00:16:00;32.83;;;23.33;;
33714;SDS011;20043;50.998;4.754;2023-04-09T00:18:26;32.42;;;22.63;;
33714;SDS011;20043;50.998;4.754;2023-04-09T00:20:51;33.97;;;23.58;;
33714;SDS011;20043;50.998;4.754;2023-04-09T00:23:17;32.90;;;23.02;;
33714;SDS011;20043;50.998;4.754;2023-04-09T00:25:42;33.42;;;21.98;;
33714;SDS011;20043;50.998;4.754;2023-04-09T00:28:08;26.75;;;20.80;;
33714;SDS011;20043;50.998;4.754;2023-04-09T00:30:33;29.75;;;21.38;;
33714;SDS011;20043;50.998;4.754;2023-04-09T00:32:59;29.25;;;21.48;;
33714;SDS011;20043;50.998;4.754;2023-04-09T00:35:25;29.80;;;21.60;;
33714;SDS011;20043;50.998;4.754;2023-04-09T00:37:51;36.08;;;21.88;;
33714;SDS011;20043;50.998;4.754;2023-04-09T00:40:16;32.17;;;22.33;;
33714;SDS011;20043;50.998;4.754;2023-04-09T00:42:42;30.45;;;21.38;;
33714;SDS011;20043;50.998;4.754;2023-04-09T00:45:07;27.77;;;20.95;;
33714;SDS011;20043;50.998;4.754;2023-04-09T00:47:34;27.77;;;21.90;;
33714;SDS011;20043;50.998;4.754;2023-04-09T00:50:00;30.27;;;22.08;;
33714;SDS011;20043;50.998;4.754;2023-04-09T00:52:27;32.53;;;22.65;;
33714;SDS011;20043;50.998;4.754;2023-04-09T00:54:54;28.65;;;21.88;;
33714;SDS011;20043;50.998;4.754;2023-04-09T00:57:29;30.58;;;22.50;;
33714;SDS011;20043;50.998;4.754;2023-04-09T00:59:54;32.85;;;23.15;;
33714;SDS011;20043;50.998;4.754;2023-04-09T01:02:20;31.08;;;24.45;;
33714;SDS011;20043;50.998;4.754;2023-04-09T01:04:46;34.05;;;24.00;;
33714;SDS011;20043;50.998;4.754;2023-04-09T01:09:52;32.97;;;24.77;;
33714;SDS011;20043;50.998;4.754;2023-04-09T01:12:26;35.97;;;25.77;;
33714;SDS011;20043;50.998;4.754;2023-04-09T01:20:29;38.38;;;26.23;;
33714;SDS011;20043;50.998;4.754;2023-04-09T01:28:53;35.10;;;26.13;;
33714;SDS011;20043;50.998;4.754;2023-04-09T01:31:27;30.88;;;24.17;;
33714;SDS011;20043;50.998;4.754;2023-04-09T01:33:55;31.88;;;25.60;;
33714;SDS011;20043;50.998;4.754;2023-04-09T01:36:22;33.60;;;26.15;;
33714;SDS011;20043;50.998;4.754;2023-04-09T01:38:50;39.35;;;26.25;;
33714;SDS011;20043;50.998;4.754;2023-04-09T01:41:17;40.80;;;24.92;;
33714;SDS011;20043;50.998;4.754;2023-04-09T01:43:48;34.38;;;27.50;;
33714;SDS011;20043;50.998;4.754;2023-04-09T01:46:15;35.65;;;26.20;;
33714;SDS011;20043;50.998;4.754;2023-04-09T01:48:42;36.28;;;26.35;;
33714;SDS011;20043;50.998;4.754;2023-04-09T01:51:09;32.22;;;25.58;;
33714;SDS011;20043;50.998;4.754;2023-04-09T01:53:38;35.60;;;24.75;;
33714;SDS011;20043;50.998;4.754;2023-04-09T01:56:04;35.80;;;26.80;;
33714;SDS011;20043;50.998;4.754;2023-04-09T01:58:31;35.80;;;27.10;;
33714;SDS011;20043;50.998;4.754;2023-04-09T02:01:11;33.05;;;25.60;;
33714;SDS011;20043;50.998;4.754;2023-04-09T02:03:55;40.70;;;27.05;;
33714;SDS011;20043;50.998;4.754;2023-04-09T02:06:25;33.47;;;26.02;;
33714;SDS011;20043;50.998;4.754;2023-04-09T02:09:12;35.17;;;25.52;;
33714;SDS011;20043;50.998;4.754;2023-04-09T02:11:43;33.17;;;24.58;;
33714;SDS011;20043;50.998;4.754;2023-04-09T02:14:11;35.45;;;25.52;;
33714;SDS011;20043;50.998;4.754;2023-04-09T02:16:38;37.47;;;28.65;;
33714;SDS011;20043;50.998;4.754;2023-04-09T02:19:04;40.17;;;29.27;;
33714;SDS011;20043;50.998;4.754;2023-04-09T02:21:30;44.58;;;32.38;;
33714;SDS011;20043;50.998;4.754;2023-04-09T02:23:56;51.58;;;35.78;;
33714;SDS011;20043;50.998;4.754;2023-04-09T02:26:22;51.17;;;35.72;;
33714;SDS011;20043;50.998;4.754;2023-04-09T02:28:50;53.13;;;37.42;;
33714;SDS011;20043;50.998;4.754;2023-04-09T02:31:16;51.47;;;36.10;;
33714;SDS011;20043;50.998;4.754;2023-04-09T02:33:42;47.53;;;34.47;;
33714;SDS011;20043;50.998;4.754;2023-04-09T02:36:10;51.15;;;35.38;;
33714;SDS011;20043;50.998;4.754;2023-04-09T02:38:39;51.45;;;35.58;;
33714;SDS011;20043;50.998;4.754;2023-04-09T02:41:05;53.17;;;36.72;;
33714;SDS011;20043;50.998;4.754;2023-04-09T02:43:31;56.22;;;38.85;;
33714;SDS011;20043;50.998;4.754;2023-04-09T02:45:56;50.92;;;37.10;;
33714;SDS011;20043;50.998;4.754;2023-04-09T02:48:22;56.00;;;37.72;;
33714;SDS011;20043;50.998;4.754;2023-04-09T02:50:47;52.45;;;38.03;;
33714;SDS011;20043;50.998;4.754;2023-04-09T02:53:13;54.30;;;38.17;;
33714;SDS011;20043;50.998;4.754;2023-04-09T02:55:38;59.80;;;39.33;;
33714;SDS011;20043;50.998;4.754;2023-04-09T02:58:04;56.88;;;38.95;;
33714;SDS011;20043;50.998;4.754;2023-04-09T03:00:29;55.22;;;38.65;;
33714;SDS011;20043;50.998;4.754;2023-04-09T03:02:55;58.92;;;40.50;;
33714;SDS011;20043;50.998;4.754;2023-04-09T03:05:21;56.75;;;40.55;;
33714;SDS011;20043;50.998;4.754;2023-04-09T03:07:47;57.13;;;38.72;;
33714;SDS011;20043;50.998;4.754;2023-04-09T03:10:13;59.65;;;40.50;;
33714;SDS011;20043;50.998;4.754;2023-04-09T03:12:39;54.83;;;39.38;;
33714;SDS011;20043;50.998;4.754;2023-04-09T03:15:05;53.80;;;38.75;;
33714;SDS011;20043;50.998;4.754;2023-04-09T03:17:31;56.30;;;39.00;;
33714;SDS011;20043;50.998;4.754;2023-04-09T03:19:56;51.55;;;37.83;;
33714;SDS011;20043;50.998;4.754;2023-04-09T03:22:23;57.58;;;40.17;;
33714;SDS011;20043;50.998;4.754;2023-04-09T03:24:48;57.65;;;39.05;;
33714;SDS011;20043;50.998;4.754;2023-04-09T03:27:14;55.53;;;37.97;;
33714;SDS011;20043;50.998;4.754;2023-04-09T03:29:39;53.00;;;37.72;;
33714;SDS011;20043;50.998;4.754;2023-04-09T03:32:05;55.53;;;39.10;;
33714;SDS011;20043;50.998;4.754;2023-04-09T03:34:30;51.22;;;36.45;;
33714;SDS011;20043;50.998;4.754;2023-04-09T03:36:56;55.70;;;36.30;;
33714;SDS011;20043;50.998;4.754;2023-04-09T03:39:21;53.67;;;36.85;;
33714;SDS011;20043;50.998;4.754;2023-04-09T03:41:47;52.10;;;37.08;;
33714;SDS011;20043;50.998;4.754;2023-04-09T03:44:13;54.47;;;37.20;;
33714;SDS011;20043;50.998;4.754;2023-04-09T03:46:38;48.85;;;35.55;;
33714;SDS011;20043;50.998;4.754;2023-04-09T03:49:04;51.25;;;36.45;;
33714;SDS011;20043;50.998;4.754;2023-04-09T03:51:29;50.22;;;35.72;;
33714;SDS011;20043;50.998;4.754;2023-04-09T03:53:55;50.58;;;35.22;;
33714;SDS011;20043;50.998;4.754;2023-04-09T03:56:21;52.78;;;35.10;;
33714;SDS011;20043;50.998;4.754;2023-04-09T03:58:47;47.33;;;33.97;;
33714;SDS011;20043;50.998;4.754;2023-04-09T04:01:13;46.33;;;33.80;;
33714;SDS011;20043;50.998;4.754;2023-04-09T04:03:39;51.17;;;35.72;;
33714;SDS011;20043;50.998;4.754;2023-04-09T04:06:05;49.20;;;34.83;;
33714;SDS011;20043;50.998;4.754;2023-04-09T04:08:30;54.78;;;35.45;;
33714;SDS011;20043;50.998;4.754;2023-04-09T04:11:01;50.33;;;34.08;;
33714;SDS011;20043;50.998;4.754;2023-04-09T04:13:27;47.53;;;33.15;;
33714;SDS011;20043;50.998;4.754;2023-04-09T04:15:53;51.78;;;34.42;;
33714;SDS011;20043;50.998;4.754;2023-04-09T04:18:19;48.83;;;35.13;;
33714;SDS011;20043;50.998;4.754;2023-04-09T04:20:44;50.25;;;33.03;;
33714;SDS011;20043;50.998;4.754;2023-04-09T04:23:10;47.15;;;33.20;;
33714;SDS011;20043;50.998;4.754;2023-04-09T04:25:35;47.15;;;31.98;;
33714;SDS011;20043;50.998;4.754;2023-04-09T04:28:04;48.30;;;32.72;;
33714;SDS011;20043;50.998;4.754;2023-04-09T04:30:30;44.90;;;31.30;;
33714;SDS011;20043;50.998;4.754;2023-04-09T04:32:55;46.50;;;32.83;;
33714;SDS011;20043;50.998;4.754;2023-04-09T04:35:21;47.50;;;32.85;;
33714;SDS011;20043;50.998;4.754;2023-04-09T04:37:48;50.25;;;33.20;;
33714;SDS011;20043;50.998;4.754;2023-04-09T04:40:15;45.92;;;32.42;;
33714;SDS011;20043;50.998;4.754;2023-04-09T04:42:41;46.33;;;31.83;;
33714;SDS011;20043;50.998;4.754;2023-04-09T04:45:06;46.35;;;32.97;;
33714;SDS011;20043;50.998;4.754;2023-04-09T04:47:32;49.03;;;32.42;;
33714;SDS011;20043;50.998;4.754;2023-04-09T04:49:58;53.55;;;33.30;;
33714;SDS011;20043;50.998;4.754;2023-04-09T04:52:24;50.50;;;35.25;;
33714;SDS011;20043;50.998;4.754;2023-04-09T04:54:49;51.30;;;35.05;;
33714;SDS011;20043;50.998;4.754;2023-04-09T04:57:15;52.95;;;34.03;;
33714;SDS011;20043;50.998;4.754;2023-04-09T04:59:40;50.65;;;34.53;;
33714;SDS011;20043;50.998;4.754;2023-04-09T05:02:06;59.60;;;38.78;;
33714;SDS011;20043;50.998;4.754;2023-04-09T05:04:32;52.53;;;36.10;;
33714;SDS011;20043;50.998;4.754;2023-04-09T05:06:57;50.22;;;31.83;;
33714;SDS011;20043;50.998;4.754;2023-04-09T05:09:23;48.58;;;32.38;;
33714;SDS011;20043;50.998;4.754;2023-04-09T05:11:49;49.42;;;33.17;;
33714;SDS011;20043;50.998;4.754;2023-04-09T05:14:14;50.63;;;33.50;;
33714;SDS011;20043;50.998;4.754;2023-04-09T05:16:40;47.65;;;33.45;;
33714;SDS011;20043;50.998;4.754;2023-04-09T05:19:06;48.30;;;33.53;;
33714;SDS011;20043;50.998;4.754;2023-04-09T05:21:31;48.95;;;33.30;;
33714;SDS011;20043;50.998;4.754;2023-04-09T05:23:57;45.65;;;31.92;;
33714;SDS011;20043;50.998;4.754;2023-04-09T05:26:23;55.05;;;32.33;;
33714;SDS011;20043;50.998;4.754;2023-04-09T05:28:48;47.47;;;32.35;;
33714;SDS011;20043;50.998;4.754;2023-04-09T05:31:14;50.97;;;34.42;;
33714;SDS011;20043;50.998;4.754;2023-04-09T05:33:40;49.90;;;32.58;;
33714;SDS011;20043;50.998;4.754;2023-04-09T05:36:06;51.53;;;33.58;;
33714;SDS011;20043;50.998;4.754;2023-04-09T05:38:32;48.10;;;32.85;;
33714;SDS011;20043;50.998;4.754;2023-04-09T05:40:58;47.00;;;30.83;;
33714;SDS011;20043;50.998;4.754;2023-04-09T05:43:23;44.72;;;31.50;;
33714;SDS011;20043;50.998;4.754;2023-04-09T05:45:49;43.65;;;28.92;;
33714;SDS011;20043;50.998;4.754;2023-04-09T05:48:15;35.03;;;26.48;;
33714;SDS011;20043;50.998;4.754;2023-04-09T05:50:47;38.88;;;27.65;;
33714;SDS011;20043;50.998;4.754;2023-04-09T05:53:14;40.22;;;28.75;;
33714;SDS011;20043;50.998;4.754;2023-04-09T05:55:39;34.47;;;25.77;;
33714;SDS011;20043;50.998;4.754;2023-04-09T05:58:05;40.47;;;28.48;;
33714;SDS011;20043;50.998;4.754;2023-04-09T06:00:31;40.95;;;28.98;;
33714;SDS011;20043;50.998;4.754;2023-04-09T06:02:56;45.50;;;31.33;;
33714;SDS011;20043;50.998;4.754;2023-04-09T06:05:22;43.63;;;31.83;;
33714;SDS011;20043;50.998;4.754;2023-04-09T06:07:47;55.15;;;35.50;;
33714;SDS011;20043;50.998;4.754;2023-04-09T06:10:13;51.17;;;37.15;;
33714;SDS011;20043;50.998;4.754;2023-04-09T06:12:38;51.47;;;37.65;;
33714;SDS011;20043;50.998;4.754;2023-04-09T06:15:04;52.38;;;36.85;;
33714;SDS011;20043;50.998;4.754;2023-04-09T06:17:30;52.53;;;38.00;;
33714;SDS011;20043;50.998;4.754;2023-04-09T06:19:56;53.22;;;36.97;;
33714;SDS011;20043;50.998;4.754;2023-04-09T06:22:21;51.55;;;38.22;;
33714;SDS011;20043;50.998;4.754;2023-04-09T06:24:47;51.60;;;38.88;;
33714;SDS011;20043;50.998;4.754;2023-04-09T06:27:12;52.80;;;40.40;;
33714;SDS011;20043;50.998;4.754;2023-04-09T06:29:38;54.58;;;40.00;;
33714;SDS011;20043;50.998;4.754;2023-04-09T06:32:04;58.55;;;42.28;;
33714;SDS011;20043;50.998;4.754;2023-04-09T06:34:29;62.03;;;41.65;;
33714;SDS011;20043;50.998;4.754;2023-04-09T06:36:55;64.40;;;43.08;;
33714;SDS011;20043;50.998;4.754;2023-04-09T06:39:20;56.28;;;42.60;;
33714;SDS011;20043;50.998;4.754;2023-04-09T06:41:46;57.72;;;43.20;;
33714;SDS011;20043;50.998;4.754;2023-04-09T06:44:20;59.88;;;44.00;;
33714;SDS011;20043;50.998;4.754;2023-04-09T06:46:45;57.17;;;43.33;;
33714;SDS011;20043;50.998;4.754;2023-04-09T06:49:11;61.40;;;43.67;;
33714;SDS011;20043;50.998;4.754;2023-04-09T06:51:37;59.15;;;43.50;;
33714;SDS011;20043;50.998;4.754;2023-04-09T06:54:02;66.50;;;46.45;;
33714;SDS011;20043;50.998;4.754;2023-04-09T06:56:28;62.40;;;45.75;;
33714;SDS011;20043;50.998;4.754;2023-04-09T06:58:53;61.85;;;45.15;;
33714;SDS011;20043;50.998;4.754;2023-04-09T07:01:19;62.90;;;45.15;;
33714;SDS011;20043;50.998;4.754;2023-04-09T07:03:45;63.88;;;46.88;;
33714;SDS011;20043;50.998;4.754;2023-04-09T07:06:10;63.92;;;45.90;;
33714;SDS011;20043;50.998;4.754;2023-04-09T07:08:36;64.63;;;44.25;;
33714;SDS011;20043;50.998;4.754;2023-04-09T07:11:02;66.93;;;45.65;;
33714;SDS011;20043;50.998;4.754;2023-04-09T07:13:28;64.72;;;44.75;;
33714;SDS011;20043;50.998;4.754;2023-04-09T07:15:53;60.15;;;44.13;;
33714;SDS011;20043;50.998;4.754;2023-04-09T07:18:19;63.17;;;43.88;;
33714;SDS011;20043;50.998;4.754;2023-04-09T07:20:45;62.88;;;43.78;;
33714;SDS011;20043;50.998;4.754;2023-04-09T07:23:10;63.83;;;43.95;;
33714;SDS011;20043;50.998;4.754;2023-04-09T07:25:36;65.45;;;44.10;;
33714;SDS011;20043;50.998;4.754;2023-04-09T07:28:01;59.65;;;43.20;;
33714;SDS011;20043;50.998;4.754;2023-04-09T07:30:27;65.75;;;43.58;;
33714;SDS011;20043;50.998;4.754;2023-04-09T07:32:53;63.03;;;44.17;;
33714;SDS011;20043;50.998;4.754;2023-04-09T07:35:19;65.40;;;43.75;;
33714;SDS011;20043;50.998;4.754;2023-04-09T07:37:44;65.55;;;43.47;;
33714;SDS011;20043;50.998;4.754;2023-04-09T07:40:10;61.53;;;42.60;;
33714;SDS011;20043;50.998;4.754;2023-04-09T07:42:36;62.22;;;43.78;;
33714;SDS011;20043;50.998;4.754;2023-04-09T07:45:03;66.22;;;43.50;;
33714;SDS011;20043;50.998;4.754;2023-04-09T07:47:30;63.10;;;43.47;;
33714;SDS011;20043;50.998;4.754;2023-04-09T07:49:56;59.38;;;41.22;;
33714;SDS011;20043;50.998;4.754;2023-04-09T07:52:22;61.08;;;41.60;;
33714;SDS011;20043;50.998;4.754;2023-04-09T07:54:47;59.05;;;40.60;;
33714;SDS011;20043;50.998;4.754;2023-04-09T07:57:13;61.55;;;41.28;;
33714;SDS011;20043;50.998;4.754;2023-04-09T07:59:38;63.30;;;40.22;;
33714;SDS011;20043;50.998;4.754;2023-04-09T08:02:04;57.80;;;39.00;;
33714;SDS011;20043;50.998;4.754;2023-04-09T08:04:30;56.40;;;39.42;;
33714;SDS011;20043;50.998;4.754;2023-04-09T08:06:55;58.58;;;40.83;;
33714;SDS011;20043;50.998;4.754;2023-04-09T08:09:21;57.95;;;40.10;;
33714;SDS011;20043;50.998;4.754;2023-04-09T08:11:47;60.10;;;40.80;;
33714;SDS011;20043;50.998;4.754;2023-04-09T08:14:14;60.22;;;39.70;;
33714;SDS011;20043;50.998;4.754;2023-04-09T08:16:46;56.72;;;40.03;;
33714;SDS011;20043;50.998;4.754;2023-04-09T08:19:14;56.40;;;39.13;;
33714;SDS011;20043;50.998;4.754;2023-04-09T08:21:41;58.08;;;38.63;;
33714;SDS011;20043;50.998;4.754;2023-04-09T08:24:08;55.63;;;38.30;;
33714;SDS011;20043;50.998;4.754;2023-04-09T08:26:35;55.10;;;38.85;;
33714;SDS011;20043;50.998;4.754;2023-04-09T08:29:01;55.17;;;36.83;;
33714;SDS011;20043;50.998;4.754;2023-04-09T08:31:27;51.42;;;36.67;;
33714;SDS011;20043;50.998;4.754;2023-04-09T08:33:52;52.88;;;36.72;;
33714;SDS011;20043;50.998;4.754;2023-04-09T08:36:18;57.15;;;37.30;;
33714;SDS011;20043;50.998;4.754;2023-04-09T08:38:45;51.85;;;36.38;;
33714;SDS011;20043;50.998;4.754;2023-04-09T08:41:16;50.67;;;35.08;;
33714;SDS011;20043;50.998;4.754;2023-04-09T08:43:43;48.05;;;34.28;;
33714;SDS011;20043;50.998;4.754;2023-04-09T08:46:11;47.90;;;33.65;;
33714;SDS011;20043;50.998;4.754;2023-04-09T08:48:39;46.05;;;32.75;;
33714;SDS011;20043;50.998;4.754;2023-04-09T08:51:13;47.83;;;32.35;;
33714;SDS011;20043;50.998;4.754;2023-04-09T08:53:50;47.53;;;33.88;;
33714;SDS011;20043;50.998;4.754;2023-04-09T08:56:20;45.75;;;31.85;;
33714;SDS011;20043;50.998;4.754;2023-04-09T08:58:46;49.05;;;33.40;;
33714;SDS011;20043;50.998;4.754;2023-04-09T09:01:25;48.28;;;32.20;;
33714;SDS011;20043;50.998;4.754;2023-04-09T09:03:58;48.75;;;32.38;;
33714;SDS011;20043;50.998;4.754;2023-04-09T09:06:27;48.65;;;32.55;;
33714;SDS011;20043;50.998;4.754;2023-04-09T09:09:11;44.95;;;31.13;;
33714;SDS011;20043;50.998;4.754;2023-04-09T09:11:45;45.42;;;30.02;;
33714;SDS011;20043;50.998;4.754;2023-04-09T09:14:16;43.47;;;29.05;;
33714;SDS011;20043;50.998;4.754;2023-04-09T09:16:44;39.22;;;28.20;;
33714;SDS011;20043;50.998;4.754;2023-04-09T09:19:28;41.28;;;28.30;;
33714;SDS011;20043;50.998;4.754;2023-04-09T09:22:04;41.80;;;29.55;;
33714;SDS011;20043;50.998;4.754;2023-04-09T09:24:32;42.25;;;29.85;;
33714;SDS011;20043;50.998;4.754;2023-04-09T09:26:58;40.30;;;28.73;;
33714;SDS011;20043;50.998;4.754;2023-04-09T09:29:25;42.10;;;28.33;;
33714;SDS011;20043;50.998;4.754;2023-04-09T09:31:52;38.25;;;27.73;;
33714;SDS011;20043;50.998;4.754;2023-04-09T09:34:19;42.72;;;28.60;;
33714;SDS011;20043;50.998;4.754;2023-04-09T09:36:46;37.83;;;27.48;;
33714;SDS011;20043;50.998;4.754;2023-04-09T09:39:12;41.65;;;28.27;;
33714;SDS011;20043;50.998;4.754;2023-04-09T09:41:39;39.35;;;28.23;;
33714;SDS011;20043;50.998;4.754;2023-04-09T09:44:06;43.08;;;28.92;;
33714;SDS011;20043;50.998;4.754;2023-04-09T09:46:36;38.15;;;28.38;;
33714;SDS011;20043;50.998;4.754;2023-04-09T09:49:04;41.42;;;28.40;;
33714;SDS011;20043;50.998;4.754;2023-04-09T09:51:30;42.45;;;28.25;;
33714;SDS011;20043;50.998;4.754;2023-04-09T09:53:58;36.97;;;27.02;;
33714;SDS011;20043;50.998;4.754;2023-04-09T09:56:24;33.38;;;24.92;;
33714;SDS011;20043;50.998;4.754;2023-04-09T10:01:23;36.92;;;26.42;;
33714;SDS011;20043;50.998;4.754;2023-04-09T10:03:51;38.38;;;27.25;;
33714;SDS011;20043;50.998;4.754;2023-04-09T10:06:20;39.20;;;26.42;;
33714;SDS011;20043;50.998;4.754;2023-04-09T10:08:47;41.63;;;27.50;;
33714;SDS011;20043;50.998;4.754;2023-04-09T10:11:20;33.55;;;26.10;;
33714;SDS011;20043;50.998;4.754;2023-04-09T10:13:52;41.17;;;27.65;;
33714;SDS011;20043;50.998;4.754;2023-04-09T10:16:26;38.28;;;27.98;;
33714;SDS011;20043;50.998;4.754;2023-04-09T10:18:55;34.35;;;25.88;;
33714;SDS011;20043;50.998;4.754;2023-04-09T10:23:57;38.65;;;26.88;;
33714;SDS011;20043;50.998;4.754;2023-04-09T10:26:24;35.08;;;25.88;;
33714;SDS011;20043;50.998;4.754;2023-04-09T10:29:10;35.58;;;26.20;;
33714;SDS011;20043;50.998;4.754;2023-04-09T10:31:50;37.35;;;25.00;;
33714;SDS011;20043;50.998;4.754;2023-04-09T10:34:27;31.77;;;24.60;;
33714;SDS011;20043;50.998;4.754;2023-04-09T10:36:57;36.13;;;25.45;;
33714;SDS011;20043;50.998;4.754;2023-04-09T10:39:27;38.03;;;25.17;;
33714;SDS011;20043;50.998;4.754;2023-04-09T10:41:56;35.13;;;25.02;;
33714;SDS011;20043;50.998;4.754;2023-04-09T10:44:24;34.90;;;24.98;;
33714;SDS011;20043;50.998;4.754;2023-04-09T10:46:59;35.83;;;24.92;;
33714;SDS011;20043;50.998;4.754;2023-04-09T10:49:25;32.88;;;24.00;;
33714;SDS011;20043;50.998;4.754;2023-04-09T11:02:00;48.58;;;27.50;;
33714;SDS011;20043;50.998;4.754;2023-04-09T11:04:30;54.88;;;28.35;;
33714;SDS011;20043;50.998;4.754;2023-04-09T11:07:12;35.33;;;24.00;;
33714;SDS011;20043;50.998;4.754;2023-04-09T11:09:41;32.50;;;23.67;;
33714;SDS011;20043;50.998;4.754;2023-04-09T11:12:07;31.55;;;23.33;;
33714;SDS011;20043;50.998;4.754;2023-04-09T11:14:35;30.23;;;22.60;;
33714;SDS011;20043;50.998;4.754;2023-04-09T11:17:02;31.08;;;22.60;;
33714;SDS011;20043;50.998;4.754;2023-04-09T11:19:27;31.35;;;22.98;;
33714;SDS011;20043;50.998;4.754;2023-04-09T11:21:53;33.83;;;24.02;;
33714;SDS011;20043;50.998;4.754;2023-04-09T11:24:19;33.65;;;23.98;;
33714;SDS011;20043;50.998;4.754;2023-04-09T11:26:45;33.72;;;23.92;;
33714;SDS011;20043;50.998;4.754;2023-04-09T11:29:13;32.05;;;23.48;;
33714;SDS011;20043;50.998;4.754;2023-04-09T11:31:41;30.30;;;22.83;;
33714;SDS011;20043;50.998;4.754;2023-04-09T11:34:09;30.90;;;22.85;;
33714;SDS011;20043;50.998;4.754;2023-04-09T11:36:36;30.60;;;22.88;;
33714;SDS011;20043;50.998;4.754;2023-04-09T11:39:02;31.25;;;21.98;;
33714;SDS011;20043;50.998;4.754;2023-04-09T11:41:34;27.95;;;20.20;;
33714;SDS011;20043;50.998;4.754;2023-04-09T11:44:02;29.75;;;20.60;;
33714;SDS011;20043;50.998;4.754;2023-04-09T11:46:29;26.88;;;20.70;;
33714;SDS011;20043;50.998;4.754;2023-04-09T11:48:56;25.65;;;19.75;;
33714;SDS011;20043;50.998;4.754;2023-04-09T11:51:22;28.70;;;21.45;;
33714;SDS011;20043;50.998;4.754;2023-04-09T11:53:48;28.33;;;21.92;;
33714;SDS011;20043;50.998;4.754;2023-04-09T11:56:15;26.45;;;20.10;;
33714;SDS011;20043;50.998;4.754;2023-04-09T11:58:44;27.52;;;20.65;;
33714;SDS011;20043;50.998;4.754;2023-04-09T12:01:13;23.48;;;18.48;;
33714;SDS011;20043;50.998;4.754;2023-04-09T12:03:39;25.02;;;19.20;;
33714;SDS011;20043;50.998;4.754;2023-04-09T12:06:05;27.48;;;19.50;;
33714;SDS011;20043;50.998;4.754;2023-04-09T12:08:33;26.02;;;18.30;;
33714;SDS011;20043;50.998;4.754;2023-04-09T12:11:07;23.90;;;17.98;;
33714;SDS011;20043;50.998;4.754;2023-04-09T12:13:36;20.50;;;15.98;;
33714;SDS011;20043;50.998;4.754;2023-04-09T12:16:06;20.70;;;15.32;;
33714;SDS011;20043;50.998;4.754;2023-04-09T12:18:34;22.58;;;16.05;;
33714;SDS011;20043;50.998;4.754;2023-04-09T12:21:01;21.63;;;15.23;;
33714;SDS011;20043;50.998;4.754;2023-04-09T12:23:27;20.90;;;15.57;;
33714;SDS011;20043;50.998;4.754;2023-04-09T12:25:55;21.77;;;16.05;;
33714;SDS011;20043;50.998;4.754;2023-04-09T12:28:23;18.52;;;13.50;;
33714;SDS011;20043;50.998;4.754;2023-04-09T12:30:49;22.42;;;14.68;;
33714;SDS011;20043;50.998;4.754;2023-04-09T12:33:15;18.83;;;13.38;;
33714;SDS011;20043;50.998;4.754;2023-04-09T12:35:41;22.42;;;15.35;;
33714;SDS011;20043;50.998;4.754;2023-04-09T12:38:06;17.45;;;13.75;;
33714;SDS011;20043;50.998;4.754;2023-04-09T12:40:33;20.20;;;13.75;;
33714;SDS011;20043;50.998;4.754;2023-04-09T12:42:59;17.63;;;13.93;;
33714;SDS011;20043;50.998;4.754;2023-04-09T12:45:25;18.05;;;13.32;;
33714;SDS011;20043;50.998;4.754;2023-04-09T12:47:51;16.17;;;12.25;;
33714;SDS011;20043;50.998;4.754;2023-04-09T12:50:17;14.02;;;10.68;;
33714;SDS011;20043;50.998;4.754;2023-04-09T12:52:43;15.18;;;11.02;;
33714;SDS011;20043;50.998;4.754;2023-04-09T12:55:10;13.50;;;10.52;;
33714;SDS011;20043;50.998;4.754;2023-04-09T12:57:36;17.02;;;12.30;;
33714;SDS011;20043;50.998;4.754;2023-04-09T13:00:03;15.07;;;11.63;;
33714;SDS011;20043;50.998;4.754;2023-04-09T13:02:31;14.20;;;11.20;;
33714;SDS011;20043;50.998;4.754;2023-04-09T13:04:58;13.93;;;10.35;;
33714;SDS011;20043;50.998;4.754;2023-04-09T13:07:23;18.98;;;11.52;;
33714;SDS011;20043;50.998;4.754;2023-04-09T13:09:53;15.73;;;11.57;;
33714;SDS011;20043;50.998;4.754;2023-04-09T13:12:18;14.63;;;10.88;;
33714;SDS011;20043;50.998;4.754;2023-04-09T13:14:45;15.20;;;10.77;;
33714;SDS011;20043;50.998;4.754;2023-04-09T13:17:12;18.10;;;11.48;;
33714;SDS011;20043;50.998;4.754;2023-04-09T13:19:38;24.73;;;12.32;;
33714;SDS011;20043;50.998;4.754;2023-04-09T13:22:03;16.13;;;11.13;;
33714;SDS011;20043;50.998;4.754;2023-04-09T13:24:32;12.75;;;9.73;;
33714;SDS011;20043;50.998;4.754;2023-04-09T13:27:00;11.85;;;10.23;;
33714;SDS011;20043;50.998;4.754;2023-04-09T13:29:27;11.75;;;9.45;;
33714;SDS011;20043;50.998;4.754;2023-04-09T13:31:54;12.85;;;9.00;;
33714;SDS011;20043;50.998;4.754;2023-04-09T13:34:21;11.32;;;8.55;;
33714;SDS011;20043;50.998;4.754;2023-04-09T13:36:53;10.45;;;8.07;;
33714;SDS011;20043;50.998;4.754;2023-04-09T13:39:18;11.15;;;8.82;;
33714;SDS011;20043;50.998;4.754;2023-04-09T13:41:44;12.35;;;9.00;;
33714;SDS011;20043;50.998;4.754;2023-04-09T13:44:10;11.25;;;8.27;;
33714;SDS011;20043;50.998;4.754;2023-04-09T13:46:36;11.88;;;8.00;;
33714;SDS011;20043;50.998;4.754;2023-04-09T13:49:01;10.18;;;7.55;;
33714;SDS011;20043;50.998;4.754;2023-04-09T13:51:27;10.65;;;7.28;;
33714;SDS011;20043;50.998;4.754;2023-04-09T13:53:54;10.90;;;8.25;;
33714;SDS011;20043;50.998;4.754;2023-04-09T13:56:19;13.10;;;7.40;;
33714;SDS011;20043;50.998;4.754;2023-04-09T13:58:45;9.77;;;7.90;;
33714;SDS011;20043;50.998;4.754;2023-04-09T14:01:12;8.52;;;6.75;;
33714;SDS011;20043;50.998;4.754;2023-04-09T14:03:38;8.55;;;7.10;;
33714;SDS011;20043;50.998;4.754;2023-04-09T14:06:05;10.15;;;7.43;;
33714;SDS011;20043;50.998;4.754;2023-04-09T14:08:32;8.43;;;6.28;;
33714;SDS011;20043;50.998;4.754;2023-04-09T14:10:58;9.02;;;6.40;;
33714;SDS011;20043;50.998;4.754;2023-04-09T14:13:24;7.75;;;6.35;;
33714;SDS011;20043;50.998;4.754;2023-04-09T14:15:49;6.93;;;5.95;;
33714;SDS011;20043;50.998;4.754;2023-04-09T14:18:15;8.63;;;6.78;;
33714;SDS011;20043;50.998;4.754;2023-04-09T14:20:41;7.68;;;6.07;;
33714;SDS011;20043;50.998;4.754;2023-04-09T14:23:06;7.50;;;5.85;;
33714;SDS011;20043;50.998;4.754;2023-04-09T14:25:32;9.35;;;6.00;;
33714;SDS011;20043;50.998;4.754;2023-04-09T14:27:57;10.95;;;6.30;;
33714;SDS011;20043;50.998;4.754;2023-04-09T14:30:23;10.02;;;5.82;;
33714;SDS011;20043;50.998;4.754;2023-04-09T14:32:49;9.85;;;6.47;;
33714;SDS011;20043;50.998;4.754;2023-04-09T14:35:14;7.47;;;5.70;;
33714;SDS011;20043;50.998;4.754;2023-04-09T14:37:40;10.50;;;6.32;;
33714;SDS011;20043;50.998;4.754;2023-04-09T14:40:09;8.15;;;6.30;;
33714;SDS011;20043;50.998;4.754;2023-04-09T14:42:34;8.93;;;6.60;;
33714;SDS011;20043;50.998;4.754;2023-04-09T14:45:00;8.80;;;6.70;;
33714;SDS011;20043;50.998;4.754;2023-04-09T14:47:26;8.77;;;6.70;;
33714;SDS011;20043;50.998;4.754;2023-04-09T14:49:52;7.90;;;5.82;;
33714;SDS011;20043;50.998;4.754;2023-04-09T14:52:17;8.50;;;6.40;;